Time;durP1;ratioP1;P1;durP2;ratioP2;P2;SDS_P1;SDS_P2;PMS_P1;PMS_P2;Temp;Humidity;BMP_temperature;BMP_pressure;BME280_temperature;BME280_humidity;BME280_pressure;Samples;Min_cycle;Max_cycle;Signal;HPM_P1;HPM_P2
2023/09/24 00:01:59;;;;;;;13.02;6.63;;;;;;;17.39;41.43;100004.72;5054368;28;20050;-74
2023/09/24 00:04:24;;;;;;;9.48;5.88;;;;;;;17.39;41.39;99977.78;5054257;28;20111;-75
2023/09/24 00:06:49;;;;;;;13.32;5.75;;;;;;;17.35;41.53;100002.50;5000485;28;20052;-75
2023/09/24 00:09:14;;;;;;;9.68;5.55;;;;;;;17.24;41.60;99994.56;5033629;28;20048;-75
2023/09/24 00:11:40;;;;;;;11.40;5.53;;;;;;;17.22;41.68;99996.53;5019455;28;20054;-77
2023/09/24 00:14:05;;;;;;;15.10;6.00;;;;;;;17.21;41.89;100011.84;5002221;28;20515;-69
2023/09/24 00:16:31;;;;;;;13.55;6.57;;;;;;;17.21;41.91;100005.63;5036709;28;20044;-72
2023/09/24 00:18:56;;;;;;;11.15;5.57;;;;;;;17.25;41.63;100024.06;5025765;28;20036;-72
2023/09/24 00:21:21;;;;;;;13.02;5.85;;;;;;;17.27;41.60;100000.50;5050265;28;20055;-72
2023/09/24 00:23:47;;;;;;;14.85;7.00;;;;;;;17.17;42.21;99998.78;5039523;28;20048;-76
2023/09/24 00:26:12;;;;;;;12.40;5.97;;;;;;;17.28;41.85;100012.13;5056053;28;20394;-73
2023/09/24 00:28:38;;;;;;;11.27;5.55;;;;;;;17.24;41.80;99997.25;5057130;28;20040;-75
2023/09/24 00:31:03;;;;;;;11.73;6.10;;;;;;;17.25;41.93;100017.81;5004795;28;20048;-75
2023/09/24 00:33:29;;;;;;;13.38;5.95;;;;;;;17.34;41.74;99998.09;5050215;28;20060;-75
2023/09/24 00:35:59;;;;;;;8.70;5.65;;;;;;;17.21;42.14;100021.78;5020765;28;20042;-75
2023/09/24 00:38:24;;;;;;;7.85;5.78;;;;;;;17.21;42.20;100024.47;5021398;28;20052;-74
2023/09/24 00:40:49;;;;;;;10.98;6.18;;;;;;;17.23;41.92;100009.03;5051149;28;20399;-75
2023/09/24 00:43:33;;;;;;;10.68;6.97;;;;;;;17.10;42.50;100035.41;5052728;28;20040;-76
2023/09/24 00:46:01;;;;;;;11.00;6.38;;;;;;;17.16;42.38;100006.03;5027922;28;20041;-77
2023/09/24 00:48:27;;;;;;;8.45;5.75;;;;;;;17.15;42.60;100011.59;5034311;28;20600;-75
2023/09/24 00:50:58;;;;;;;11.85;6.07;;;;;;;17.18;42.38;100020.22;5033939;28;20063;-75
2023/09/24 00:53:28;;;;;;;13.38;6.05;;;;;;;17.31;42.11;100009.16;5053007;28;20054;-71
2023/09/24 00:55:57;;;;;;;12.82;6.55;;;;;;;17.23;42.29;100003.63;4996060;28;20039;-71
2023/09/24 00:58:25;;;;;;;11.70;5.63;;;;;;;17.27;42.28;100000.50;5055974;28;20510;-71
2023/09/24 01:00:53;;;;;;;12.13;6.00;;;;;;;17.27;42.01;100000.50;5035752;28;20055;-76
2023/09/24 01:03:19;;;;;;;10.90;6.32;;;;;;;17.42;42.15;100003.59;5037682;28;20040;-73
2023/09/24 01:05:48;;;;;;;9.35;5.50;;;;;;;17.39;42.13;99993.94;5020855;28;20066;-73
2023/09/24 01:08:14;;;;;;;13.38;6.35;;;;;;;17.37;42.03;99987.03;5055814;28;20044;-73
2023/09/24 01:10:39;;;;;;;12.48;5.60;;;;;;;17.28;42.43;99991.41;5056217;28;20044;-72
2023/09/24 01:13:04;;;;;;;10.85;5.95;;;;;;;17.25;42.46;99991.72;5021009;28;20048;-75
2023/09/24 01:15:31;;;;;;;13.50;6.60;;;;;;;17.20;42.77;99987.75;5037494;28;20043;-71
2023/09/24 01:17:57;;;;;;;8.00;5.53;;;;;;;17.25;42.79;100007.03;5053992;28;20059;-74
2023/09/24 01:20:24;;;;;;;10.32;6.47;;;;;;;17.19;42.97;100002.19;5038034;28;20414;-74
2023/09/24 01:22:51;;;;;;;8.60;5.85;;;;;;;17.19;42.91;99989.59;5021149;28;20052;-69
2023/09/24 01:25:19;;;;;;;12.10;5.82;;;;;;;17.06;43.23;99987.19;5037401;28;20433;-68
2023/09/24 01:27:46;;;;;;;14.32;6.47;;;;;;;17.15;43.10;99990.03;5055571;28;20430;-69
2023/09/24 01:30:13;;;;;;;11.32;6.00;;;;;;;17.06;43.44;99987.19;5037368;28;20032;-68
2023/09/24 01:32:40;;;;;;;12.32;6.47;;;;;;;17.05;43.00;99985.47;5000340;28;20052;-72
2023/09/24 01:35:06;;;;;;;19.75;6.70;;;;;;;17.01;43.29;100021.78;5028210;28;20040;-75
2023/09/24 01:37:33;;;;;;;8.55;6.20;;;;;;;17.05;43.26;100000.78;5029558;28;20491;-72
2023/09/24 01:40:06;;;;;;;8.65;5.53;;;;;;;17.09;43.32;99987.91;5024217;28;20041;-72
2023/09/24 01:42:34;;;;;;;13.40;6.65;;;;;;;17.10;43.46;100008.47;5012879;28;20060;-72
2023/09/24 01:44:59;;;;;;;11.15;6.05;;;;;;;17.02;43.45;99991.19;4996965;28;20059;-72
2023/09/24 01:47:24;;;;;;;8.65;6.07;;;;;;;17.08;43.63;99999.66;5013526;28;20059;-78
2023/09/24 01:49:49;;;;;;;10.35;5.60;;;;;;;17.09;43.63;100002.22;5014318;28;20044;-77
2023/09/24 01:52:15;;;;;;;16.17;6.10;;;;;;;17.08;43.24;99978.09;5015816;28;20041;-71
2023/09/24 01:54:40;;;;;;;16.77;6.53;;;;;;;17.01;43.59;99994.00;5013685;28;20048;-71
2023/09/24 01:57:07;;;;;;;10.50;5.53;;;;;;;17.04;43.60;99973.00;4980707;28;20068;-71
2023/09/24 01:59:32;;;;;;;9.30;5.68;;;;;;;17.02;43.86;99980.41;5015930;28;20384;-74
2023/09/24 02:01:57;;;;;;;15.88;5.95;;;;;;;16.99;43.91;99982.50;5017883;28;20719;-76
2023/09/24 02:04:23;;;;;;;8.55;5.72;;;;;;;16.98;43.82;99968.19;5017373;28;20044;-77
2023/09/24 02:06:48;;;;;;;11.43;6.95;;;;;;;16.99;43.53;99969.91;4999497;28;20052;-69
2023/09/24 02:09:15;;;;;;;13.65;6.68;;;;;;;16.99;43.87;99985.22;5034629;28;20036;-72
2023/09/24 02:11:41;;;;;;;11.10;6.15;;;;;;;16.93;44.05;99997.38;5025152;28;20052;-71
2023/09/24 02:14:07;;;;;;;8.77;5.70;;;;;;;16.89;44.11;100098.31;5022977;28;20051;-71
2023/09/24 02:16:33;;;;;;;8.13;5.38;;;;;;;16.95;44.09;99981.94;5036962;28;20708;-70
2023/09/24 02:19:00;;;;;;;8.52;5.55;;;;;;;16.85;44.48;100004.47;5019193;28;20044;-71
2023/09/24 02:21:25;;;;;;;11.90;5.75;;;;;;;16.92;44.14;99984.94;5035568;28;20406;-71
2023/09/24 02:23:53;;;;;;;11.93;6.80;;;;;;;16.90;44.36;99976.16;5037196;28;20047;-74
2023/09/24 02:26:19;;;;;;;13.85;6.43;;;;;;;16.87;44.37;99991.72;5036559;28;20040;-73
2023/09/24 02:28:44;;;;;;;11.02;6.75;;;;;;;16.92;44.09;99973.31;5031286;28;20039;-70
2023/09/24 02:31:12;;;;;;;8.98;5.57;;;;;;;16.84;44.70;99997.38;5032482;28;20048;-71
2023/09/24 02:33:38;;;;;;;10.45;6.03;;;;;;;16.84;44.51;99971.31;5009952;28;20052;-73
2023/09/24 02:36:08;;;;;;;12.93;6.53;;;;;;;16.78;44.62;99998.81;5036607;28;20105;-72
2023/09/24 02:38:34;;;;;;;17.52;8.65;;;;;;;16.73;44.71;99995.69;5033261;28;20506;-72
2023/09/24 02:41:00;;;;;;;11.50;6.57;;;;;;;16.75;44.85;99979.38;5048590;28;20494;-72
2023/09/24 02:43:25;;;;;;;9.70;5.90;;;;;;;16.83;44.57;99984.91;5034891;28;20047;-73
2023/09/24 02:45:50;;;;;;;11.25;6.50;;;;;;;16.77;44.89;99980.09;5033451;28;20047;-73
2023/09/24 02:48:18;;;;;;;13.38;7.38;;;;;;;16.66;45.33;99983.78;5030767;28;20039;-72
2023/09/24 02:50:45;;;;;;;14.27;7.20;;;;;;;16.64;45.41;99985.75;5034781;28;20048;-72
2023/09/24 02:53:10;;;;;;;9.65;6.40;;;;;;;16.78;44.94;99992.56;5005390;28;20049;-71
2023/09/24 02:55:38;;;;;;;11.07;6.35;;;;;;;16.58;45.37;99991.69;4999175;28;20049;-71
2023/09/24 02:58:04;;;;;;;12.25;6.70;;;;;;;16.56;45.18;99982.88;5018181;28;20051;-72
2023/09/24 03:02:58;;;;;;;10.25;6.72;;;;;;;16.51;45.46;99985.13;5010099;28;20041;-71
2023/09/24 03:05:24;;;;;;;8.77;6.10;;;;;;;16.44;45.84;99997.44;5053390;28;20047;-71
2023/09/24 03:07:53;;;;;;;13.38;6.20;;;;;;;16.41;45.99;99982.44;5037996;28;20035;-72
2023/09/24 03:10:21;;;;;;;11.00;6.60;;;;;;;16.38;46.30;99984.53;5040180;28;20048;-74
2023/09/24 03:12:48;;;;;;;13.88;6.60;;;;;;;16.38;46.13;100006.91;5024266;28;20036;-74
2023/09/24 03:15:13;;;;;;;8.98;6.35;;;;;;;16.27;46.68;99993.56;5023451;28;20052;-71
2023/09/24 03:17:40;;;;;;;10.50;6.47;;;;;;;16.15;47.16;99995.50;5058415;28;20521;-71
2023/09/24 03:20:19;;;;;;;14.60;7.00;;;;;;;16.25;46.77;100007.16;5003113;28;20048;-71
2023/09/24 03:22:49;;;;;;;11.15;7.10;;;;;;;16.20;46.99;99992.44;5022859;28;20498;-71
2023/09/24 03:25:18;;;;;;;14.15;6.13;;;;;;;16.28;46.61;99997.97;5039702;28;20052;-70
2023/09/24 03:27:45;;;;;;;10.80;7.00;;;;;;;16.24;46.76;99993.88;5023413;28;20054;-72
2023/09/24 03:30:17;;;;;;;13.80;6.20;;;;;;;16.21;46.55;99992.28;5013971;28;20057;-73
2023/09/24 03:32:48;;;;;;;15.32;6.32;;;;;;;16.14;47.21;99996.50;5001900;28;20041;-72
2023/09/24 03:35:19;;;;;;;13.90;6.45;;;;;;;16.18;46.92;99999.78;5030708;28;20043;-73
2023/09/24 03:37:46;;;;;;;10.63;6.63;;;;;;;16.14;47.41;100003.75;5007101;28;20047;-71
2023/09/24 03:40:17;;;;;;;11.40;6.68;;;;;;;16.18;47.23;100000.63;5053116;28;20044;-71
2023/09/24 03:42:46;;;;;;;15.75;6.50;;;;;;;16.12;47.50;100011.94;5055688;28;20051;-72
2023/09/24 03:45:16;;;;;;;11.23;7.10;;;;;;;16.06;47.55;99995.47;5036858;28;20039;-71
2023/09/24 03:47:42;;;;;;;10.77;7.05;;;;;;;16.03;47.75;99991.22;5036491;28;20048;-72
2023/09/24 03:50:13;;;;;;;11.38;6.07;;;;;;;16.09;47.28;100006.84;5040377;28;20047;-76
2023/09/24 03:52:45;;;;;;;10.75;6.20;;;;;;;16.07;47.92;100000.72;5023886;28;20059;-76
2023/09/24 03:55:11;;;;;;;9.85;5.75;;;;;;;16.11;47.44;100004.00;5022763;28;20051;-76
2023/09/24 03:57:39;;;;;;;13.23;7.53;;;;;;;16.06;47.44;99969.44;5045982;28;20059;-76
2023/09/24 04:00:15;;;;;;;14.18;7.10;;;;;;;16.07;47.82;100005.25;5020704;28;20048;-78
2023/09/24 04:02:48;;;;;;;10.73;6.43;;;;;;;15.90;48.18;100022.88;5020544;28;20051;-77
2023/09/24 04:05:18;;;;;;;16.42;6.82;;;;;;;16.00;48.01;100012.19;5038013;28;20162;-76
2023/09/24 04:07:46;;;;;;;9.88;6.40;;;;;;;15.93;47.74;100007.31;5036337;28;20036;-75
2023/09/24 04:10:14;;;;;;;12.45;7.18;;;;;;;15.91;48.29;100029.97;5037781;28;20052;-75
2023/09/24 04:12:46;;;;;;;14.07;7.55;;;;;;;15.97;47.78;100007.91;5003186;28;20049;-76
2023/09/24 04:15:14;;;;;;;12.20;7.63;;;;;;;16.03;48.00;100001.97;4986856;28;20064;-75
2023/09/24 04:17:40;;;;;;;10.48;6.50;;;;;;;16.02;47.92;99994.91;5003595;28;20043;-75
2023/09/24 04:20:12;;;;;;;12.00;6.95;;;;;;;16.15;48.13;100011.66;5002168;28;20048;-75
2023/09/24 04:22:37;;;;;;;12.35;6.40;;;;;;;16.38;47.29;100012.28;5035648;28;20044;-75
2023/09/24 04:25:03;;;;;;;16.45;7.22;;;;;;;16.47;47.03;100010.63;5034330;28;20055;-76
2023/09/24 04:27:30;;;;;;;10.20;6.40;;;;;;;16.60;46.53;100005.81;5046917;28;20059;-75
2023/09/24 04:29:55;;;;;;;10.02;6.60;;;;;;;16.67;46.26;99998.94;5037390;28;20479;-76
2023/09/24 04:32:20;;;;;;;11.68;6.82;;;;;;;16.77;46.13;100005.19;5002182;28;20419;-76
2023/09/24 04:34:46;;;;;;;14.10;6.78;;;;;;;16.83;46.03;100001.06;5002526;28;20142;-77
2023/09/24 04:37:14;;;;;;;16.88;7.75;;;;;;;16.79;46.69;100011.28;5039215;28;20055;-75
2023/09/24 04:39:39;;;;;;;12.48;6.57;;;;;;;16.88;45.75;100014.97;5037271;28;20059;-76
2023/09/24 04:42:06;;;;;;;11.35;6.70;;;;;;;16.85;45.76;100043.03;5038999;28;20036;-77
2023/09/24 04:44:31;;;;;;;13.40;6.35;;;;;;;16.83;45.64;100012.69;5056645;28;20055;-76
2023/09/24 04:46:57;;;;;;;11.65;6.93;;;;;;;16.84;45.80;100014.38;5040222;28;20118;-75
2023/09/24 04:49:22;;;;;;;12.82;6.93;;;;;;;16.80;45.80;100007.59;5039253;28;20040;-75
2023/09/24 04:51:49;;;;;;;14.95;7.35;;;;;;;16.68;45.88;100014.09;5023597;28;20040;-79
2023/09/24 04:54:15;;;;;;;14.10;6.63;;;;;;;16.51;46.30;100017.44;5023549;28;20055;-79
2023/09/24 04:56:40;;;;;;;11.45;6.65;;;;;;;16.45;46.64;100020.69;5039089;28;20063;-77
2023/09/24 04:59:05;;;;;;;11.35;7.45;;;;;;;16.39;47.12;100029.28;5021879;28;20078;-79
2023/09/24 05:01:30;;;;;;;11.00;6.50;;;;;;;16.51;46.69;99996.75;5058547;28;20043;-78
2023/09/24 05:03:55;;;;;;;15.15;7.13;;;;;;;16.50;46.36;100048.03;5058589;28;20055;-80
2023/09/24 05:06:21;;;;;;;16.02;7.65;;;;;;;16.39;46.92;100050.81;5040903;28;20043;-78
2023/09/24 05:08:47;;;;;;;14.13;7.32;;;;;;;16.27;47.41;100023.16;5019518;28;20036;-80
2023/09/24 05:11:13;;;;;;;18.48;7.20;;;;;;;16.28;47.88;100028.41;4987585;28;20048;-78
2023/09/24 05:13:38;;;;;;;14.63;7.07;;;;;;;16.49;46.83;100036.41;5004428;28;20055;-80
2023/09/24 05:16:04;;;;;;;11.40;6.53;;;;;;;16.58;46.55;100029.34;5020292;28;20059;-80
2023/09/24 05:18:31;;;;;;;15.10;7.50;;;;;;;16.86;46.14;100030.41;5017865;28;20503;-75
2023/09/24 05:20:56;;;;;;;13.30;6.82;;;;;;;17.09;45.62;100022.91;5031913;28;20055;-75
2023/09/24 05:23:22;;;;;;;13.00;6.75;;;;;;;17.33;45.32;100043.06;5037934;28;20418;-77
2023/09/24 05:25:49;;;;;;;11.45;6.38;;;;;;;17.69;44.58;100036.09;5055425;28;20382;-77
2023/09/24 05:28:14;;;;;;;10.82;6.22;;;;;;;18.03;43.98;100031.00;5038531;28;20047;-77
2023/09/24 05:30:39;;;;;;;24.92;7.82;;;;;;;18.45;42.95;100019.72;5038459;28;20063;-77
2023/09/24 05:33:06;;;;;;;11.65;7.07;;;;;;;18.98;42.00;100059.50;5039082;28;20040;-77
2023/09/24 05:35:31;;;;;;;11.57;7.82;;;;;;;19.54;40.74;100029.47;5036889;28;20364;-78
2023/09/24 05:37:57;;;;;;;13.93;7.72;;;;;;;19.99;39.78;100044.63;5035959;28;20411;-77
2023/09/24 05:40:22;;;;;;;15.38;6.63;;;;;;;20.08;39.12;100022.06;5036400;28;20052;-77
2023/09/24 05:42:47;;;;;;;13.15;7.25;;;;;;;20.23;38.92;100025.81;5036848;28;20478;-79
2023/09/24 05:45:13;;;;;;;15.27;7.40;;;;;;;20.47;38.70;100049.50;5036645;28;20048;-79
2023/09/24 05:47:38;;;;;;;12.57;6.70;;;;;;;20.74;37.86;100041.13;5036773;28;20045;-77
2023/09/24 05:50:03;;;;;;;10.38;7.22;;;;;;;21.35;37.33;100061.59;5033554;28;20056;-77
2023/09/24 05:52:30;;;;;;;11.27;6.13;;;;;;;21.93;36.39;100038.84;5017971;28;20051;-78
2023/09/24 05:54:57;;;;;;;10.90;7.57;;;;;;;21.80;35.78;100042.06;5036414;28;20040;-76
2023/09/24 05:57:26;;;;;;;11.98;6.32;;;;;;;21.93;36.01;100017.97;5035111;28;20060;-77
2023/09/24 05:59:54;;;;;;;11.43;6.70;;;;;;;22.49;35.32;100043.25;5018437;28;20059;-77
2023/09/24 06:02:26;;;;;;;10.85;6.50;;;;;;;23.08;33.91;100038.22;5018444;28;20342;-77
2023/09/24 06:04:55;;;;;;;11.93;7.30;;;;;;;22.85;34.03;100018.31;5017234;28;20040;-77
2023/09/24 06:07:21;;;;;;;12.07;7.22;;;;;;;22.85;34.49;100023.75;4983828;28;20407;-77
2023/09/24 06:09:46;;;;;;;12.93;7.53;;;;;;;22.84;34.16;100006.59;5000245;28;20495;-77
2023/09/24 06:12:11;;;;;;;12.05;6.88;;;;;;;22.81;34.29;100012.38;5017529;28;20044;-76
2023/09/24 06:14:37;;;;;;;10.43;6.30;;;;;;;23.05;34.28;100009.50;5034077;28;20502;-78
2023/09/24 06:17:03;;;;;;;9.60;7.13;;;;;;;23.17;33.81;100018.09;5016976;28;20048;-76
2023/09/24 06:19:29;;;;;;;11.38;6.43;;;;;;;23.97;33.04;100007.53;5034892;28;20051;-77
2023/09/24 06:21:54;;;;;;;12.02;7.97;;;;;;;24.53;32.10;100016.06;5000087;28;20064;-76
2023/09/24 06:24:20;;;;;;;12.35;6.75;;;;;;;25.60;30.77;99996.06;5035179;28;20051;-77
2023/09/24 06:26:46;;;;;;;16.30;7.68;;;;;;;26.29;29.62;99987.94;5016926;28;20051;-77
2023/09/24 06:29:11;;;;;;;15.25;7.65;;;;;;;27.03;28.61;99987.16;5042202;28;20043;-77
2023/09/24 06:31:37;;;;;;;17.20;7.30;;;;;;;27.45;28.35;99983.19;5020739;28;20547;-77
2023/09/24 06:34:02;;;;;;;15.38;7.97;;;;;;;27.90;27.73;99997.09;5047178;28;20483;-77
2023/09/24 06:36:27;;;;;;;12.07;7.40;;;;;;;28.04;27.16;99966.69;5030215;28;20418;-75
2023/09/24 06:38:53;;;;;;;12.30;7.70;;;;;;;28.18;27.31;99993.06;5020045;28;20059;-76
2023/09/24 06:41:18;;;;;;;13.20;8.85;;;;;;;28.44;26.71;99983.88;5036375;28;20498;-77
2023/09/24 06:43:43;;;;;;;13.70;8.02;;;;;;;28.80;26.28;99998.94;5036379;28;20047;-77
2023/09/24 06:46:08;;;;;;;22.88;8.63;;;;;;;28.98;26.12;100001.81;5037154;28;20040;-77
2023/09/24 06:48:34;;;;;;;14.23;7.05;;;;;;;29.03;25.79;99982.75;5050257;28;20063;-76
2023/09/24 06:51:07;;;;;;;10.43;6.95;;;;;;;29.77;25.58;99979.25;5000321;28;20056;-76
2023/09/24 06:53:32;;;;;;;9.93;7.38;;;;;;;30.09;24.86;99974.50;5017156;28;20044;-77
2023/09/24 06:55:57;;;;;;;11.35;7.13;;;;;;;30.49;24.91;99972.13;5016790;28;20403;-77
2023/09/24 06:58:23;;;;;;;9.50;6.80;;;;;;;31.15;24.34;99971.28;5034140;28;20048;-77
2023/09/24 07:00:48;;;;;;;15.68;7.72;;;;;;;31.36;23.88;99961.59;5035424;28;20032;-76
2023/09/24 07:03:13;;;;;;;15.50;7.05;;;;;;;31.83;23.41;99956.97;5017762;28;20079;-77
2023/09/24 07:05:39;;;;;;;11.85;7.22;;;;;;;32.33;22.82;99961.97;5017310;28;20049;-76
2023/09/24 07:08:04;;;;;;;14.35;7.25;;;;;;;32.87;22.00;99968.91;5017434;28;20052;-77
2023/09/24 07:10:30;;;;;;;13.57;7.55;;;;;;;32.59;22.37;99988.19;4996179;28;20526;-76
2023/09/24 07:12:55;;;;;;;10.75;7.72;;;;;;;33.30;21.87;99968.31;4996936;28;20551;-77
2023/09/24 07:15:20;;;;;;;16.10;8.07;;;;;;;34.51;21.17;99963.84;4981008;28;20504;-76
2023/09/24 07:17:45;;;;;;;13.38;7.55;;;;;;;35.24;20.33;99964.34;4980951;28;20064;-75
2023/09/24 07:20:11;;;;;;;20.65;8.40;;;;;;;35.34;20.07;99927.56;5012843;28;20045;-75
2023/09/24 07:22:37;;;;;;;14.48;7.65;;;;;;;35.83;19.53;99976.25;5017132;28;20518;-76
2023/09/24 07:25:02;;;;;;;14.57;8.60;;;;;;;36.29;19.03;99982.94;5017105;28;20693;-76
2023/09/24 07:27:29;;;;;;;13.25;8.00;;;;;;;36.78;18.78;99993.75;5034682;28;20044;-77
2023/09/24 07:29:55;;;;;;;14.27;9.00;;;;;;;37.05;18.53;99994.34;5016044;28;20049;-77
2023/09/24 07:32:20;;;;;;;11.55;7.00;;;;;;;37.41;18.31;99984.13;5017130;28;20551;-76
2023/09/24 07:34:46;;;;;;;8.77;7.55;;;;;;;37.65;18.28;100003.09;5035189;28;20488;-76
2023/09/24 07:37:13;;;;;;;14.93;9.63;;;;;;;36.81;18.17;99987.59;5015571;28;20044;-75
2023/09/24 07:39:39;;;;;;;11.52;7.97;;;;;;;36.90;18.58;100024.06;4999323;28;20052;-75
2023/09/24 07:42:05;;;;;;;12.95;8.25;;;;;;;37.15;18.30;99987.13;5034294;28;20487;-75
2023/09/24 07:44:30;;;;;;;10.45;8.27;;;;;;;36.83;18.25;99985.41;5016070;28;20049;-75
2023/09/24 07:46:55;;;;;;;14.23;8.65;;;;;;;36.77;18.39;99980.94;5016257;28;20390;-74
2023/09/24 07:49:21;;;;;;;12.98;7.82;;;;;;;36.86;18.22;99984.03;5032162;28;20051;-75
2023/09/24 07:51:46;;;;;;;11.73;7.22;;;;;;;37.99;17.67;99976.31;5034083;28;20037;-76
2023/09/24 07:54:11;;;;;;;9.73;7.57;;;;;;;36.98;18.09;99993.78;5000850;28;20487;-75
2023/09/24 07:56:41;;;;;;;16.52;9.70;;;;;;;36.51;18.64;99959.69;5020279;28;20075;-76
2023/09/24 07:59:06;;;;;;;12.63;8.15;;;;;;;37.57;18.13;99970.22;5020189;28;20056;-75
2023/09/24 08:01:32;;;;;;;12.23;8.60;;;;;;;38.07;17.40;99970.19;5019540;28;20049;-76
2023/09/24 08:03:57;;;;;;;12.30;8.18;;;;;;;38.48;17.23;99956.97;5036495;28;20040;-75
2023/09/24 08:06:22;;;;;;;13.38;8.38;;;;;;;38.24;17.25;99971.84;5019781;28;20415;-77
2023/09/24 08:08:48;;;;;;;11.50;8.68;;;;;;;38.51;17.32;99949.97;5019628;28;20127;-74
2023/09/24 08:11:13;;;;;;;11.57;8.73;;;;;;;38.82;17.02;99954.31;5037328;28;20036;-75
2023/09/24 08:13:38;;;;;;;14.73;8.57;;;;;;;38.27;17.37;99955.38;5019842;28;20854;-76
2023/09/24 08:16:03;;;;;;;15.00;9.13;;;;;;;37.85;17.83;99958.53;5051899;28;20048;-75
2023/09/24 08:18:29;;;;;;;16.65;9.25;;;;;;;38.31;17.30;99955.63;5022436;28;20056;-77
2023/09/24 08:20:54;;;;;;;19.48;9.85;;;;;;;37.77;18.16;99964.66;5057385;28;20044;-75
2023/09/24 08:23:21;;;;;;;11.98;8.75;;;;;;;37.50;17.88;99956.59;5057574;28;20043;-76
2023/09/24 08:25:50;;;;;;;9.80;8.18;;;;;;;37.47;17.94;99968.28;5038862;28;20055;-76
2023/09/24 08:28:16;;;;;;;10.43;8.35;;;;;;;36.78;18.41;99940.94;5057287;28;20044;-77
2023/09/24 08:30:41;;;;;;;11.45;7.95;;;;;;;36.94;18.42;99948.19;5057572;28;20043;-76
2023/09/24 08:33:08;;;;;;;12.05;7.90;;;;;;;37.67;18.05;99923.78;5038956;28;20055;-76
2023/09/24 08:35:36;;;;;;;11.63;9.25;;;;;;;38.70;17.79;99909.25;5039147;28;20048;-77
2023/09/24 08:38:01;;;;;;;15.48;9.18;;;;;;;38.73;17.07;99933.72;5039068;28;20051;-77
2023/09/24 08:40:30;;;;;;;10.68;8.02;;;;;;;37.74;17.84;99937.41;5055988;28;20422;-79
2023/09/24 08:42:56;;;;;;;17.83;8.55;;;;;;;37.29;18.08;99938.25;5022705;28;20063;-79
2023/09/24 08:45:26;;;;;;;15.80;8.18;;;;;;;36.75;18.39;99927.59;5040825;28;20044;-78
2023/09/24 08:47:51;;;;;;;16.45;9.13;;;;;;;36.53;18.76;99930.56;5058487;28;20047;-78
2023/09/24 08:50:17;;;;;;;12.40;6.93;;;;;;;35.95;19.14;99931.66;5022249;28;20118;-79
2023/09/24 08:52:45;;;;;;;13.70;8.45;;;;;;;35.35;19.64;99940.34;5056371;28;20502;-78
2023/09/24 08:55:12;;;;;;;15.63;8.10;;;;;;;33.99;20.96;99927.41;5048260;28;20399;-78
2023/09/24 08:57:44;;;;;;;15.27;7.88;;;;;;;33.22;21.98;99937.47;5016184;28;20059;-81
2023/09/24 09:00:11;;;;;;;10.65;7.18;;;;;;;33.87;21.44;99921.13;5020256;28;20043;-79
2023/09/24 09:02:41;;;;;;;12.15;7.40;;;;;;;34.06;20.90;99922.53;5038549;28;20040;-78
2023/09/24 09:05:20;;;;;;;11.98;7.28;;;;;;;33.78;21.04;99920.75;5002994;28;20056;-81
2023/09/24 09:07:58;;;;;;;10.90;6.55;;;;;;;34.29;20.73;99945.56;5003453;28;20049;-83
2023/09/24 09:10:27;;;;;;;10.85;7.30;;;;;;;34.86;20.57;99924.66;5003438;28;20044;-79
2023/09/24 09:13:14;;;;;;;13.45;7.07;;;;;;;35.82;19.45;99934.91;5036254;28;20059;-80
2023/09/24 09:15:41;;;;;;;10.77;6.28;;;;;;;36.42;19.00;99937.19;5020876;28;20106;-80
2023/09/24 09:18:22;;;;;;;12.10;7.10;;;;;;;35.52;19.62;99922.47;5036928;28;20052;-81
2023/09/24 09:20:48;;;;;;;19.00;7.78;;;;;;;35.16;20.27;99949.03;5020525;28;20071;-81
2023/09/24 09:23:16;;;;;;;7.93;6.38;;;;;;;34.86;20.48;99919.09;5038485;28;20063;-80
2023/09/24 09:25:52;;;;;;;9.30;7.15;;;;;;;34.61;20.61;99932.66;5004058;28;20391;-80
2023/09/24 09:28:23;;;;;;;13.40;7.50;;;;;;;33.48;21.29;99917.50;5002955;28;20505;-79
2023/09/24 09:30:58;;;;;;;14.82;7.20;;;;;;;32.91;22.17;99933.34;5019604;28;20055;-78
2023/09/24 09:33:27;;;;;;;12.93;6.80;;;;;;;32.37;22.65;99922.63;5018890;28;20499;-79
2023/09/24 09:35:54;;;;;;;17.48;7.13;;;;;;;31.96;23.31;99907.09;5019359;28;20059;-79
2023/09/24 09:38:20;;;;;;;16.65;7.15;;;;;;;32.45;22.96;99904.84;5056680;28;20044;-78
2023/09/24 09:40:51;;;;;;;12.35;7.45;;;;;;;32.83;22.66;99917.19;5038301;28;20442;-78
2023/09/24 09:43:21;;;;;;;25.05;7.13;;;;;;;33.76;21.65;99888.91;5026457;28;20037;-77
2023/09/24 09:45:48;;;;;;;14.70;7.43;;;;;;;34.17;21.37;99885.59;5000477;28;20488;-79
2023/09/24 09:48:17;;;;;;;8.82;6.32;;;;;;;34.72;20.28;99889.28;5032530;28;20024;-78
2023/09/24 09:50:45;;;;;;;14.52;8.20;;;;;;;34.32;20.62;99889.66;5006084;28;20053;-81
2023/09/24 09:53:16;;;;;;;12.52;7.50;;;;;;;33.76;21.01;99903.56;5021837;28;20036;-81
2023/09/24 09:55:42;;;;;;;10.25;6.20;;;;;;;32.40;22.42;99891.75;4999105;28;20075;-77
2023/09/24 09:58:09;;;;;;;10.98;6.68;;;;;;;31.81;23.23;99926.06;5070758;28;20043;-80
2023/09/24 10:00:35;;;;;;;10.77;7.38;;;;;;;30.64;23.85;99901.03;5061667;28;20032;-79
2023/09/24 10:03:00;;;;;;;11.85;6.68;;;;;;;30.22;24.29;99880.00;5033514;28;20549;-79
2023/09/24 10:05:27;;;;;;;12.90;6.85;;;;;;;29.77;25.06;99874.81;5020458;28;20048;-79
2023/09/24 10:07:53;;;;;;;14.05;7.45;;;;;;;28.76;26.62;99901.66;5019887;28;20048;-81
2023/09/24 10:10:31;;;;;;;18.30;7.90;;;;;;;28.82;26.67;99920.84;5047608;28;20043;-81
2023/09/24 10:12:56;;;;;;;15.05;8.57;;;;;;;28.48;26.77;99921.22;5054957;28;20048;-81
2023/09/24 10:15:28;;;;;;;11.88;6.70;;;;;;;28.31;26.90;99896.22;5052152;28;20032;-81
2023/09/24 10:18:09;;;;;;;8.70;6.80;;;;;;;28.13;27.32;99894.13;5052174;28;20059;-81
2023/09/24 10:21:00;;;;;;;15.27;7.28;;;;;;;28.41;27.08;99891.09;5039745;28;20063;-79
2023/09/24 10:23:28;;;;;;;9.48;7.20;;;;;;;27.27;28.58;99884.41;5023405;28;20048;-79
2023/09/24 10:25:54;;;;;;;11.57;6.75;;;;;;;27.15;29.18;99877.88;5020033;28;20040;-76
2023/09/24 10:28:19;;;;;;;15.15;6.85;;;;;;;27.37;28.60;99887.56;5052934;28;20063;-80
2023/09/24 10:31:07;;;;;;;14.98;7.00;;;;;;;27.31;29.04;99877.47;5050735;28;20051;-80
2023/09/24 10:34:04;;;;;;;12.90;7.03;;;;;;;26.95;29.60;99881.47;5001291;28;20059;-79
2023/09/24 10:36:33;;;;;;;10.98;6.47;;;;;;;26.52;29.62;99882.84;5008881;28;20047;-76
2023/09/24 10:39:13;;;;;;;11.13;7.10;;;;;;;26.66;29.72;99835.31;5020547;28;20051;-76
2023/09/24 10:42:10;;;;;;;20.48;8.30;;;;;;;26.27;30.58;99869.75;5047924;28;20131;-77
2023/09/24 10:44:37;;;;;;;18.02;7.13;;;;;;;26.32;30.16;99871.84;5038475;28;20059;-78
2023/09/24 10:47:25;;;;;;;11.20;6.70;;;;;;;25.99;30.76;99871.69;5026633;28;20036;-77
2023/09/24 10:49:50;;;;;;;12.88;7.32;;;;;;;25.62;31.61;99892.91;5050690;28;20048;-78
2023/09/24 10:52:16;;;;;;;16.35;7.63;;;;;;;25.63;31.49;99871.94;5035671;28;20509;-78
2023/09/24 10:54:46;;;;;;;10.90;7.00;;;;;;;25.71;31.96;99881.88;5051771;28;20486;-75
2023/09/24 10:57:25;;;;;;;10.48;7.20;;;;;;;25.49;31.83;99861.97;5032092;28;20419;-76
2023/09/24 10:59:50;;;;;;;17.33;7.53;;;;;;;25.36;31.85;99865.44;5032371;28;20698;-76
2023/09/24 11:02:17;;;;;;;9.93;6.18;;;;;;;25.62;31.31;99865.63;4997440;28;20052;-75
2023/09/24 11:04:42;;;;;;;13.23;6.60;;;;;;;25.26;31.69;99870.41;5032846;28;20517;-75
2023/09/24 11:07:12;;;;;;;14.80;7.07;;;;;;;25.15;31.93;99879.13;5040981;28;20040;-75
2023/09/24 11:09:37;;;;;;;9.23;6.45;;;;;;;25.06;32.42;99847.56;5052055;28;20410;-76
2023/09/24 11:12:09;;;;;;;9.43;5.53;;;;;;;25.10;32.33;99892.53;5048205;28;20043;-75
2023/09/24 11:14:34;;;;;;;13.48;5.82;;;;;;;25.07;32.66;99860.16;5033258;28;20130;-78
2023/09/24 11:17:00;;;;;;;11.52;6.28;;;;;;;25.09;32.46;99842.56;5019568;28;20063;-77
2023/09/24 11:19:44;;;;;;;14.18;7.22;;;;;;;25.18;32.38;99856.88;5003561;28;20569;-75
2023/09/24 11:22:21;;;;;;;9.18;6.20;;;;;;;25.19;32.33;99859.44;5053560;28;20055;-76
2023/09/24 11:24:50;;;;;;;9.98;6.18;;;;;;;25.06;32.41;99891.22;5020154;28;20052;-74
2023/09/24 11:27:16;;;;;;;11.98;5.55;;;;;;;25.04;32.76;99855.97;5049702;28;20055;-74
2023/09/24 11:29:56;;;;;;;11.55;5.47;;;;;;;25.07;32.49;99832.88;5055810;28;20047;-72